Hurlburt Field, Florida
Current Conditions -  °F | °C
As of 9:38 PM on Monday 22 Dec 2014 (Local Time) from KHRT Reporting Station
Haze Haze  
Wind Chill: 63°   Ceiling: Unl
Heat Index: 63°   Visibility: 2.5mi
Dew Point: 59°   Wind: 1mph
Humidity: 88%   Direction: 70°ENE
Pressure: 29.81"   Gusts: NA
Location:  30.43°N, 86.69°W
Report Text: KHRT 230338Z AUTO 07001KT 2 1/2SM R18/5500FT BR CLR 17/15 A2981 RMK AO2 VIS 1 1/2V2 1/2
Loading
Personal Weather Stations






























Interactive Weather Map New forecast layout! Learn more

10-Day Weather Forecast

Advertisements
Track Severe Weather on mobile